메인 페이지
METAR-TAF:

METAR-TAF

공항 :

Bridgeport, 캘리포니아, 미국

위도: 38-15-45N, 경도: 119-13-33W, 고도: 1973m

현재 날씨관측

예보는 42분 전, 03:52시(UTC)에 발표되었습니다.
무풍
온도 9°C
습도 76%
기압 1015 hPa
시정: 16.1km
고도 3000ft 상공 구름 조금
고도 4600ft 상공 구름 많음
고도 5500ft 상공 흐림
약한비

METAR: KBAN 220352Z AUTO 00000KT 10SM -RA FEW030 BKN046 OVC055 09/05 A2998 RMK AO2 SLP114 P0001 T00890050 $

시각: 21:34 (04:34 UTC)


TAF: 누락

4,000개 이상의 공항 관측 자료 및 예보 (METAR 및 TAF 보고).

지도상에서 검색 가능한 기상관측소가 노란 점과 빨간 점으로 표시되어 있습니다.

기상관측소 명을 보려면 표시 위로 마우스를 이동하세요.

날씨 관측과 예보를 보려면 클릭하세요.

지도 변경 : 확대하려면 엑스 표시가 있는 녹색 버튼, 축소하려면 빼기 표시가 있는 녹색 버튼, 다음 페이지의 지도를 보려면 녹색 화살표를 클릭하세요.


METAR-TAF: